sensor_id;sensor_type;location;lat;lon;timestamp;pressure;altitude;pressure_sealevel;temperature;humidity
19624;BME280;9959;49.798;9.928;2023-03-01T00:02:11;100741.22;;;-1.81;78.69
19624;BME280;9959;49.798;9.928;2023-03-01T00:04:41;100734.03;;;-1.79;78.59
19624;BME280;9959;49.798;9.928;2023-03-01T00:07:08;100742.47;;;-1.87;79.13
19624;BME280;9959;49.798;9.928;2023-03-01T00:09:37;100738.25;;;-1.77;78.47
19624;BME280;9959;49.798;9.928;2023-03-01T00:12:05;100744.06;;;-1.84;78.40
19624;BME280;9959;49.798;9.928;2023-03-01T00:14:32;100744.81;;;-1.69;78.85
19624;BME280;9959;49.798;9.928;2023-03-01T00:16:59;100743.53;;;-1.77;78.67
19624;BME280;9959;49.798;9.928;2023-03-01T00:19:26;100742.16;;;-1.82;78.84
19624;BME280;9959;49.798;9.928;2023-03-01T00:21:52;100745.22;;;-1.88;78.81
19624;BME280;9959;49.798;9.928;2023-03-01T00:24:19;100747.53;;;-2.09;80.18
19624;BME280;9959;49.798;9.928;2023-03-01T00:26:46;100740.38;;;-1.94;79.74
19624;BME280;9959;49.798;9.928;2023-03-01T00:29:13;100741.31;;;-1.83;79.22
19624;BME280;9959;49.798;9.928;2023-03-01T00:31:40;100734.47;;;-1.73;78.69
19624;BME280;9959;49.798;9.928;2023-03-01T00:34:06;100733.41;;;-1.83;79.11
19624;BME280;9959;49.798;9.928;2023-03-01T00:36:35;100729.59;;;-2.04;79.65
19624;BME280;9959;49.798;9.928;2023-03-01T00:39:04;100722.00;;;-1.96;79.33
19624;BME280;9959;49.798;9.928;2023-03-01T00:41:32;100711.84;;;-2.15;80.46
19624;BME280;9959;49.798;9.928;2023-03-01T00:44:01;100709.44;;;-2.05;79.84
19624;BME280;9959;49.798;9.928;2023-03-01T00:46:28;100702.13;;;-2.14;80.41
19624;BME280;9959;49.798;9.928;2023-03-01T00:48:57;100711.00;;;-2.15;81.06
19624;BME280;9959;49.798;9.928;2023-03-01T00:51:26;100707.72;;;-2.31;81.32
19624;BME280;9959;49.798;9.928;2023-03-01T00:53:55;100702.97;;;-2.14;81.03
19624;BME280;9959;49.798;9.928;2023-03-01T00:56:23;100701.50;;;-2.18;80.99
19624;BME280;9959;49.798;9.928;2023-03-01T00:58:50;100699.38;;;-2.51;81.93
19624;BME280;9959;49.798;9.928;2023-03-01T01:01:19;100702.56;;;-2.20;81.72
19624;BME280;9959;49.798;9.928;2023-03-01T01:03:53;100688.63;;;-2.10;80.85
19624;BME280;9959;49.798;9.928;2023-03-01T01:06:23;100701.91;;;-2.11;81.03
19624;BME280;9959;49.798;9.928;2023-03-01T01:08:51;100696.34;;;-2.07;80.21
19624;BME280;9959;49.798;9.928;2023-03-01T01:11:18;100689.25;;;-2.06;80.59
19624;BME280;9959;49.798;9.928;2023-03-01T01:13:46;100688.63;;;-2.10;81.21
19624;BME280;9959;49.798;9.928;2023-03-01T01:16:14;100684.59;;;-2.15;80.65
19624;BME280;9959;49.798;9.928;2023-03-01T01:18:42;100685.66;;;-2.05;80.39
19624;BME280;9959;49.798;9.928;2023-03-01T01:21:12;100685.03;;;-1.96;79.60
19624;BME280;9959;49.798;9.928;2023-03-01T01:23:40;100677.84;;;-2.07;80.25
19624;BME280;9959;49.798;9.928;2023-03-01T01:26:11;100678.06;;;-1.97;79.74
19624;BME280;9959;49.798;9.928;2023-03-01T01:28:39;100675.53;;;-2.11;80.20
19624;BME280;9959;49.798;9.928;2023-03-01T01:31:06;100680.19;;;-2.02;79.81
19624;BME280;9959;49.798;9.928;2023-03-01T01:33:34;100671.72;;;-2.32;80.56
19624;BME280;9959;49.798;9.928;2023-03-01T01:36:00;100674.03;;;-2.41;81.34
19624;BME280;9959;49.798;9.928;2023-03-01T01:38:27;100666.44;;;-2.32;81.24
19624;BME280;9959;49.798;9.928;2023-03-01T01:40:55;100665.69;;;-2.34;81.26
19624;BME280;9959;49.798;9.928;2023-03-01T01:43:31;100663.50;;;-2.28;80.82
19624;BME280;9959;49.798;9.928;2023-03-01T01:46:04;100662.25;;;-2.22;80.45
19624;BME280;9959;49.798;9.928;2023-03-01T01:51:13;100657.34;;;-2.54;81.81
19624;BME280;9959;49.798;9.928;2023-03-01T01:53:43;100660.94;;;-2.55;81.98
19624;BME280;9959;49.798;9.928;2023-03-01T01:56:11;100657.34;;;-2.54;82.06
19624;BME280;9959;49.798;9.928;2023-03-01T02:01:08;100645.97;;;-2.54;82.24
19624;BME280;9959;49.798;9.928;2023-03-01T02:03:37;100644.50;;;-2.20;80.83
19624;BME280;9959;49.798;9.928;2023-03-01T02:06:17;100628.44;;;-2.30;80.39
19624;BME280;9959;49.798;9.928;2023-03-01T02:08:46;100628.88;;;-2.49;81.17
19624;BME280;9959;49.798;9.928;2023-03-01T02:11:14;100634.78;;;-2.32;80.28
19624;BME280;9959;49.798;9.928;2023-03-01T02:13:41;100631.50;;;-2.36;80.73
19624;BME280;9959;49.798;9.928;2023-03-01T02:16:11;100627.47;;;-2.42;81.13
19624;BME280;9959;49.798;9.928;2023-03-01T02:23:54;100622.63;;;-2.35;80.74
19624;BME280;9959;49.798;9.928;2023-03-01T02:26:34;100626.13;;;-2.47;81.64
19624;BME280;9959;49.798;9.928;2023-03-01T02:29:03;100625.91;;;-2.44;81.95
19624;BME280;9959;49.798;9.928;2023-03-01T02:31:32;100617.66;;;-2.40;81.44
19624;BME280;9959;49.798;9.928;2023-03-01T02:34:09;100615.66;;;-2.61;82.12
19624;BME280;9959;49.798;9.928;2023-03-01T02:39:13;100605.00;;;-2.34;81.04
19624;BME280;9959;49.798;9.928;2023-03-01T02:41:46;100611.97;;;-2.33;80.27
19624;BME280;9959;49.798;9.928;2023-03-01T02:44:15;100599.75;;;-2.47;81.26
19624;BME280;9959;49.798;9.928;2023-03-01T02:46:51;100610.09;;;-2.57;81.36
19624;BME280;9959;49.798;9.928;2023-03-01T02:49:30;100598.66;;;-2.45;81.22
19624;BME280;9959;49.798;9.928;2023-03-01T02:57:08;100598.47;;;-2.42;81.47
19624;BME280;9959;49.798;9.928;2023-03-01T02:59:36;100594.03;;;-2.54;81.91
19624;BME280;9959;49.798;9.928;2023-03-01T03:02:07;100585.38;;;-2.56;81.75
19624;BME280;9959;49.798;9.928;2023-03-01T03:04:34;100576.94;;;-2.61;82.25
19624;BME280;9959;49.798;9.928;2023-03-01T03:07:01;100581.38;;;-2.61;82.44
19624;BME280;9959;49.798;9.928;2023-03-01T03:09:28;100579.78;;;-2.64;82.66
19624;BME280;9959;49.798;9.928;2023-03-01T03:11:55;100573.97;;;-2.69;82.70
19624;BME280;9959;49.798;9.928;2023-03-01T03:14:21;100569.53;;;-2.68;83.00
19624;BME280;9959;49.798;9.928;2023-03-01T03:16:50;100569.78;;;-2.59;82.67
19624;BME280;9959;49.798;9.928;2023-03-01T03:19:18;100570.59;;;-2.71;83.14
19624;BME280;9959;49.798;9.928;2023-03-01T03:21:46;100566.63;;;-2.77;83.28
19624;BME280;9959;49.798;9.928;2023-03-01T03:24:15;100570.59;;;-2.71;83.54
19624;BME280;9959;49.798;9.928;2023-03-01T03:26:43;100566.81;;;-2.67;83.07
19624;BME280;9959;49.798;9.928;2023-03-01T03:29:09;100571.34;;;-2.69;83.21
19624;BME280;9959;49.798;9.928;2023-03-01T03:31:36;100573.34;;;-2.60;82.97
19624;BME280;9959;49.798;9.928;2023-03-01T03:34:03;100563.22;;;-2.79;83.53
19624;BME280;9959;49.798;9.928;2023-03-01T03:36:30;100572.63;;;-2.62;82.96
19624;BME280;9959;49.798;9.928;2023-03-01T03:38:57;100568.31;;;-2.76;83.56
19624;BME280;9959;49.798;9.928;2023-03-01T03:41:24;100561.00;;;-2.59;82.83
19624;BME280;9959;49.798;9.928;2023-03-01T03:43:50;100559.97;;;-2.57;82.18
19624;BME280;9959;49.798;9.928;2023-03-01T03:46:17;100558.38;;;-2.59;82.76
19624;BME280;9959;49.798;9.928;2023-03-01T03:48:45;100562.06;;;-2.62;82.59
19624;BME280;9959;49.798;9.928;2023-03-01T03:51:13;100563.00;;;-2.63;82.55
19624;BME280;9959;49.798;9.928;2023-03-01T03:56:08;100552.06;;;-2.57;82.18
19624;BME280;9959;49.798;9.928;2023-03-01T03:58:35;100557.31;;;-2.82;83.26
19624;BME280;9959;49.798;9.928;2023-03-01T04:01:02;100554.16;;;-2.62;82.35
19624;BME280;9959;49.798;9.928;2023-03-01T04:03:30;100552.91;;;-2.56;82.35
19624;BME280;9959;49.798;9.928;2023-03-01T04:05:59;100556.47;;;-2.45;82.15
19624;BME280;9959;49.798;9.928;2023-03-01T04:08:27;100558.69;;;-2.64;82.07
19624;BME280;9959;49.798;9.928;2023-03-01T04:11:02;100554.91;;;-2.60;82.23
19624;BME280;9959;49.798;9.928;2023-03-01T04:13:48;100554.06;;;-2.48;81.85
19624;BME280;9959;49.798;9.928;2023-03-01T04:16:16;100554.16;;;-2.49;81.85
19624;BME280;9959;49.798;9.928;2023-03-01T04:18:44;100557.31;;;-2.57;82.11
19624;BME280;9959;49.798;9.928;2023-03-01T04:21:11;100558.06;;;-2.55;81.98
19624;BME280;9959;49.798;9.928;2023-03-01T04:23:39;100559.84;;;-2.43;81.21
19624;BME280;9959;49.798;9.928;2023-03-01T04:26:06;100549.28;;;-2.43;81.00
19624;BME280;9959;49.798;9.928;2023-03-01T04:28:38;100559.72;;;-2.28;80.08
19624;BME280;9959;49.798;9.928;2023-03-01T04:31:09;100563.69;;;-2.10;79.78
19624;BME280;9959;49.798;9.928;2023-03-01T04:33:46;100560.63;;;-2.04;78.87
19624;BME280;9959;49.798;9.928;2023-03-01T04:36:15;100568.22;;;-1.99;78.72
19624;BME280;9959;49.798;9.928;2023-03-01T04:38:42;100567.81;;;-2.06;78.43
19624;BME280;9959;49.798;9.928;2023-03-01T04:41:15;100575.25;;;-2.24;79.33
19624;BME280;9959;49.798;9.928;2023-03-01T04:43:43;100562.69;;;-2.20;79.20
19624;BME280;9959;49.798;9.928;2023-03-01T04:46:15;100564.53;;;-1.97;78.01
19624;BME280;9959;49.798;9.928;2023-03-01T04:48:43;100562.53;;;-2.06;78.46
19624;BME280;9959;49.798;9.928;2023-03-01T04:51:11;100568.88;;;-1.96;77.51
19624;BME280;9959;49.798;9.928;2023-03-01T04:56:09;100564.22;;;-1.92;77.48
19624;BME280;9959;49.798;9.928;2023-03-01T04:58:37;100572.03;;;-2.16;78.13
19624;BME280;9959;49.798;9.928;2023-03-01T05:01:30;100563.16;;;-2.02;77.98
19624;BME280;9959;49.798;9.928;2023-03-01T05:03:57;100567.38;;;-2.00;78.59
19624;BME280;9959;49.798;9.928;2023-03-01T05:06:29;100567.81;;;-2.06;78.14
19624;BME280;9959;49.798;9.928;2023-03-01T05:08:56;100562.53;;;-2.19;79.05
19624;BME280;9959;49.798;9.928;2023-03-01T05:11:23;100560.84;;;-2.07;78.63
19624;BME280;9959;49.798;9.928;2023-03-01T05:13:50;100560.22;;;-2.11;78.43
19624;BME280;9959;49.798;9.928;2023-03-01T05:16:21;100555.56;;;-2.07;78.39
19624;BME280;9959;49.798;9.928;2023-03-01T05:18:48;100562.16;;;-2.25;78.93
19624;BME280;9959;49.798;9.928;2023-03-01T05:21:17;100566.56;;;-2.13;78.93
19624;BME280;9959;49.798;9.928;2023-03-01T05:23:44;100566.56;;;-2.13;79.15
19624;BME280;9959;49.798;9.928;2023-03-01T05:26:11;100557.25;;;-2.06;79.08
19624;BME280;9959;49.798;9.928;2023-03-01T05:28:53;100560.38;;;-2.25;79.42
19624;BME280;9959;49.798;9.928;2023-03-01T05:31:26;100550.66;;;-2.24;79.78
19624;BME280;9959;49.798;9.928;2023-03-01T05:33:53;100553.19;;;-2.23;79.41
19624;BME280;9959;49.798;9.928;2023-03-01T05:36:20;100550.13;;;-2.29;80.19
19624;BME280;9959;49.798;9.928;2023-03-01T05:38:47;100548.44;;;-2.30;79.85
19624;BME280;9959;49.798;9.928;2023-03-01T05:41:14;100555.28;;;-2.41;80.45
19624;BME280;9959;49.798;9.928;2023-03-01T05:43:43;100545.16;;;-2.34;80.46
19624;BME280;9959;49.798;9.928;2023-03-01T05:46:11;100543.78;;;-2.40;80.21
19624;BME280;9959;49.798;9.928;2023-03-01T05:48:39;100541.72;;;-2.47;80.98
19624;BME280;9959;49.798;9.928;2023-03-01T05:51:06;100545.91;;;-2.45;80.55
19624;BME280;9959;49.798;9.928;2023-03-01T05:53:33;100540.84;;;-2.35;80.25
19624;BME280;9959;49.798;9.928;2023-03-01T05:56:03;100543.59;;;-2.62;81.55
19624;BME280;9959;49.798;9.928;2023-03-01T05:58:30;100542.66;;;-2.61;81.51
19624;BME280;9959;49.798;9.928;2023-03-01T06:00:57;100542.78;;;-2.50;80.79
19624;BME280;9959;49.798;9.928;2023-03-01T06:03:24;100542.34;;;-2.69;81.69
19624;BME280;9959;49.798;9.928;2023-03-01T06:05:58;100540.75;;;-2.59;81.21
19624;BME280;9959;49.798;9.928;2023-03-01T06:08:28;100533.47;;;-2.55;80.94
19624;BME280;9959;49.798;9.928;2023-03-01T06:10:55;100536.44;;;-2.60;81.30
19624;BME280;9959;49.798;9.928;2023-03-01T06:13:23;100539.59;;;-2.55;80.73
19624;BME280;9959;49.798;9.928;2023-03-01T06:15:50;100541.81;;;-2.49;80.76
19624;BME280;9959;49.798;9.928;2023-03-01T06:18:17;100544.75;;;-2.28;79.93
19624;BME280;9959;49.798;9.928;2023-03-01T06:20:44;100544.50;;;-2.12;78.66
19624;BME280;9959;49.798;9.928;2023-03-01T06:23:18;100541.69;;;-2.22;78.32
19624;BME280;9959;49.798;9.928;2023-03-01T06:25:45;100548.34;;;-2.42;78.99
19624;BME280;9959;49.798;9.928;2023-03-01T06:28:12;100541.56;;;-2.20;78.57
19624;BME280;9959;49.798;9.928;2023-03-01T06:30:38;100541.84;;;-2.12;77.62
19624;BME280;9959;49.798;9.928;2023-03-01T06:33:05;100542.28;;;-2.18;78.11
19624;BME280;9959;49.798;9.928;2023-03-01T06:35:32;100540.41;;;-2.42;79.08
19624;BME280;9959;49.798;9.928;2023-03-01T06:38:01;100535.78;;;-2.38;79.17
19624;BME280;9959;49.798;9.928;2023-03-01T06:40:32;100541.88;;;-2.25;78.46
19624;BME280;9959;49.798;9.928;2023-03-01T06:43:04;100544.00;;;-2.30;79.12
19624;BME280;9959;49.798;9.928;2023-03-01T06:45:30;100538.31;;;-2.24;79.17
19624;BME280;9959;49.798;9.928;2023-03-01T06:48:07;100529.81;;;-2.16;78.66
19624;BME280;9959;49.798;9.928;2023-03-01T06:50:35;100535.91;;;-2.03;77.69
19624;BME280;9959;49.798;9.928;2023-03-01T06:53:02;100533.19;;;-2.01;77.66
19624;BME280;9959;49.798;9.928;2023-03-01T06:55:29;100527.56;;;-1.97;77.34
19624;BME280;9959;49.798;9.928;2023-03-01T06:57:57;100531.44;;;-1.90;76.01
19624;BME280;9959;49.798;9.928;2023-03-01T07:00:26;100524.31;;;-1.77;76.32
19624;BME280;9959;49.798;9.928;2023-03-01T07:02:54;100526.75;;;-1.74;76.03
19624;BME280;9959;49.798;9.928;2023-03-01T07:05:21;100532.97;;;-1.75;75.62
19624;BME280;9959;49.798;9.928;2023-03-01T07:07:47;100530.75;;;-1.68;75.90
19624;BME280;9959;49.798;9.928;2023-03-01T07:10:14;100524.31;;;-1.53;75.20
19624;BME280;9959;49.798;9.928;2023-03-01T07:12:41;100525.94;;;-1.39;75.02
19624;BME280;9959;49.798;9.928;2023-03-01T07:15:09;100520.19;;;-1.33;73.96
19624;BME280;9959;49.798;9.928;2023-03-01T07:17:36;100520.78;;;-1.41;74.79
19624;BME280;9959;49.798;9.928;2023-03-01T07:20:03;100514.91;;;-1.33;73.32
19624;BME280;9959;49.798;9.928;2023-03-01T07:22:30;100509.38;;;-1.30;73.48
19624;BME280;9959;49.798;9.928;2023-03-01T07:24:56;100507.03;;;-1.22;72.64
19624;BME280;9959;49.798;9.928;2023-03-01T07:27:23;100502.47;;;-1.09;72.08
19624;BME280;9959;49.798;9.928;2023-03-01T07:29:50;100496.50;;;-1.11;72.37
19624;BME280;9959;49.798;9.928;2023-03-01T07:32:17;100492.50;;;-1.05;72.40
19624;BME280;9959;49.798;9.928;2023-03-01T07:34:43;100491.13;;;-0.87;70.99
19624;BME280;9959;49.798;9.928;2023-03-01T07:37:10;100482.84;;;-0.82;70.33
19624;BME280;9959;49.798;9.928;2023-03-01T07:39:37;100490.16;;;-0.75;70.06
19624;BME280;9959;49.798;9.928;2023-03-01T07:42:03;100493.91;;;-0.66;69.73
19624;BME280;9959;49.798;9.928;2023-03-01T07:44:30;100495.13;;;-0.59;69.55
19624;BME280;9959;49.798;9.928;2023-03-01T07:46:57;100499.78;;;-0.62;69.63
19624;BME280;9959;49.798;9.928;2023-03-01T07:49:24;100504.72;;;-0.47;69.44
19624;BME280;9959;49.798;9.928;2023-03-01T07:51:53;100498.72;;;-0.38;69.14
19624;BME280;9959;49.798;9.928;2023-03-01T07:54:19;100494.03;;;-0.34;68.86
19624;BME280;9959;49.798;9.928;2023-03-01T07:56:46;100499.91;;;-0.30;68.05
19624;BME280;9959;49.798;9.928;2023-03-01T07:59:13;100498.22;;;-0.20;68.23
19624;BME280;9959;49.798;9.928;2023-03-01T08:01:40;100493.16;;;-0.12;67.63
19624;BME280;9959;49.798;9.928;2023-03-01T08:04:08;100499.66;;;-0.05;67.45
19624;BME280;9959;49.798;9.928;2023-03-01T08:06:35;100497.47;;;-0.11;68.01
19624;BME280;9959;49.798;9.928;2023-03-01T08:09:02;100496.03;;;-0.04;67.84
19624;BME280;9959;49.798;9.928;2023-03-01T08:11:29;100492.63;;;0.05;67.30
19624;BME280;9959;49.798;9.928;2023-03-01T08:13:56;100489.25;;;0.14;67.55
19624;BME280;9959;49.798;9.928;2023-03-01T08:16:24;100492.13;;;0.22;66.67
19624;BME280;9959;49.798;9.928;2023-03-01T08:18:50;100498.09;;;0.36;65.89
19624;BME280;9959;49.798;9.928;2023-03-01T08:21:17;100493.50;;;0.38;65.25
19624;BME280;9959;49.798;9.928;2023-03-01T08:23:44;100487.63;;;0.55;64.86
19624;BME280;9959;49.798;9.928;2023-03-01T08:26:14;100487.00;;;0.62;63.79
19624;BME280;9959;49.798;9.928;2023-03-01T08:28:41;100495.44;;;0.88;62.96
19624;BME280;9959;49.798;9.928;2023-03-01T08:31:21;100482.88;;;0.90;62.67
19624;BME280;9959;49.798;9.928;2023-03-01T08:33:50;100480.56;;;0.97;62.71
19624;BME280;9959;49.798;9.928;2023-03-01T08:36:26;100479.84;;;0.95;62.54
19624;BME280;9959;49.798;9.928;2023-03-01T08:38:54;100481.31;;;0.88;62.00
19624;BME280;9959;49.798;9.928;2023-03-01T08:41:21;100475.19;;;1.08;61.58
19624;BME280;9959;49.798;9.928;2023-03-01T08:43:49;100476.31;;;1.36;61.13
19624;BME280;9959;49.798;9.928;2023-03-01T08:46:16;100472.25;;;1.62;60.69
19624;BME280;9959;49.798;9.928;2023-03-01T08:48:43;100466.84;;;1.93;59.15
19624;BME280;9959;49.798;9.928;2023-03-01T08:51:13;100466.00;;;1.92;59.56
19624;BME280;9959;49.798;9.928;2023-03-01T08:53:41;100456.66;;;1.98;58.21
19624;BME280;9959;49.798;9.928;2023-03-01T08:56:09;100457.94;;;2.03;58.77
19624;BME280;9959;49.798;9.928;2023-03-01T08:58:37;100461.31;;;2.15;58.08
19624;BME280;9959;49.798;9.928;2023-03-01T09:01:08;100453.22;;;2.36;57.13
19624;BME280;9959;49.798;9.928;2023-03-01T09:03:36;100446.75;;;2.58;56.31
19624;BME280;9959;49.798;9.928;2023-03-01T09:06:06;100442.13;;;2.79;55.72
19624;BME280;9959;49.798;9.928;2023-03-01T09:08:37;100443.78;;;2.80;55.73
19624;BME280;9959;49.798;9.928;2023-03-01T09:11:07;100435.53;;;3.30;54.45
19624;BME280;9959;49.798;9.928;2023-03-01T09:13:34;100428.25;;;3.59;53.42
19624;BME280;9959;49.798;9.928;2023-03-01T09:16:02;100426.59;;;3.58;52.73
19624;BME280;9959;49.798;9.928;2023-03-01T09:18:30;100425.28;;;3.35;52.79
19624;BME280;9959;49.798;9.928;2023-03-01T09:21:02;100431.59;;;3.71;52.48
19624;BME280;9959;49.798;9.928;2023-03-01T09:26:14;100428.03;;;3.53;52.20
19624;BME280;9959;49.798;9.928;2023-03-01T09:28:43;100420.25;;;2.95;53.00
19624;BME280;9959;49.798;9.928;2023-03-01T09:31:12;100424.13;;;3.47;52.34
19624;BME280;9959;49.798;9.928;2023-03-01T09:33:40;100418.69;;;3.39;52.27
19624;BME280;9959;49.798;9.928;2023-03-01T09:36:11;100413.50;;;3.37;52.28
19624;BME280;9959;49.798;9.928;2023-03-01T09:38:39;100412.28;;;3.59;52.11
19624;BME280;9959;49.798;9.928;2023-03-01T09:46:47;100418.31;;;4.06;50.22
19624;BME280;9959;49.798;9.928;2023-03-01T09:49:30;100412.84;;;4.08;50.68
19624;BME280;9959;49.798;9.928;2023-03-01T09:52:00;100404.31;;;4.22;50.78
19624;BME280;9959;49.798;9.928;2023-03-01T09:54:29;100410.81;;;3.74;51.47
19624;BME280;9959;49.798;9.928;2023-03-01T09:57:13;100407.19;;;4.11;50.79
19624;BME280;9959;49.798;9.928;2023-03-01T10:00:03;100404.28;;;4.58;49.63
19624;BME280;9959;49.798;9.928;2023-03-01T10:05:26;100386.97;;;4.44;49.40
19624;BME280;9959;49.798;9.928;2023-03-01T10:08:27;100397.19;;;4.92;48.27
19624;BME280;9959;49.798;9.928;2023-03-01T10:10:56;100393.31;;;4.43;48.41
19624;BME280;9959;49.798;9.928;2023-03-01T10:16:15;100385.16;;;4.88;48.65
19624;BME280;9959;49.798;9.928;2023-03-01T10:18:46;100381.50;;;4.89;48.40
19624;BME280;9959;49.798;9.928;2023-03-01T10:21:19;100378.00;;;4.27;48.38
19624;BME280;9959;49.798;9.928;2023-03-01T10:23:49;100376.22;;;4.54;48.62
19624;BME280;9959;49.798;9.928;2023-03-01T10:26:41;100376.28;;;5.14;47.62
19624;BME280;9959;49.798;9.928;2023-03-01T10:29:11;100376.09;;;5.41;47.34
19624;BME280;9959;49.798;9.928;2023-03-01T10:36:51;100380.84;;;5.63;46.49
19624;BME280;9959;49.798;9.928;2023-03-01T10:39:25;100371.56;;;5.07;46.96
19624;BME280;9959;49.798;9.928;2023-03-01T10:41:56;100372.59;;;5.91;45.83
19624;BME280;9959;49.798;9.928;2023-03-01T10:50:01;100369.66;;;5.68;45.58
19624;BME280;9959;49.798;9.928;2023-03-01T10:52:33;100360.81;;;5.67;45.82
19624;BME280;9959;49.798;9.928;2023-03-01T10:55:23;100355.22;;;5.53;45.87
19624;BME280;9959;49.798;9.928;2023-03-01T10:58:23;100345.38;;;5.53;45.18
19624;BME280;9959;49.798;9.928;2023-03-01T11:00:53;100342.50;;;6.05;45.21
19624;BME280;9959;49.798;9.928;2023-03-01T11:03:33;100336.84;;;6.40;44.10
19624;BME280;9959;49.798;9.928;2023-03-01T11:06:19;100336.69;;;6.26;44.41
19624;BME280;9959;49.798;9.928;2023-03-01T11:08:49;100314.41;;;6.66;44.56
19624;BME280;9959;49.798;9.928;2023-03-01T11:11:19;100320.97;;;6.47;43.81
19624;BME280;9959;49.798;9.928;2023-03-01T11:13:59;100319.75;;;6.82;42.65
19624;BME280;9959;49.798;9.928;2023-03-01T11:16:37;100313.19;;;6.85;42.68
19624;BME280;9959;49.798;9.928;2023-03-01T11:24:12;100308.19;;;6.82;42.74
19624;BME280;9959;49.798;9.928;2023-03-01T11:29:39;100298.31;;;6.82;42.54
19624;BME280;9959;49.798;9.928;2023-03-01T11:32:08;100303.25;;;7.94;40.59
19624;BME280;9959;49.798;9.928;2023-03-01T11:37:21;100304.53;;;7.22;40.77
19624;BME280;9959;49.798;9.928;2023-03-01T11:40:10;100300.56;;;7.40;40.42
19624;BME280;9959;49.798;9.928;2023-03-01T11:45:11;100284.81;;;7.68;40.60
19624;BME280;9959;49.798;9.928;2023-03-01T12:03:29;100259.09;;;10.93;33.92
19624;BME280;9959;49.798;9.928;2023-03-01T12:08:41;100238.16;;;10.61;33.93
19624;BME280;9959;49.798;9.928;2023-03-01T12:11:39;100229.84;;;10.90;34.03
19624;BME280;9959;49.798;9.928;2023-03-01T12:17:15;100224.50;;;11.64;33.08
19624;BME280;9959;49.798;9.928;2023-03-01T12:22:44;100212.38;;;11.34;32.73
19624;BME280;9959;49.798;9.928;2023-03-01T12:28:21;100199.56;;;11.62;32.26
19624;BME280;9959;49.798;9.928;2023-03-01T12:31:00;100195.69;;;11.84;32.88
19624;BME280;9959;49.798;9.928;2023-03-01T12:38:59;100190.41;;;11.43;33.25
19624;BME280;9959;49.798;9.928;2023-03-01T12:49:57;100167.47;;;11.94;32.83
19624;BME280;9959;49.798;9.928;2023-03-01T12:54:56;100147.63;;;12.52;31.83
19624;BME280;9959;49.798;9.928;2023-03-01T13:00:22;100140.25;;;13.31;30.50
19624;BME280;9959;49.798;9.928;2023-03-01T13:03:02;100145.88;;;12.78;30.96
19624;BME280;9959;49.798;9.928;2023-03-01T13:08:17;100133.16;;;12.14;31.88
19624;BME280;9959;49.798;9.928;2023-03-01T13:10:51;100121.09;;;12.10;32.21
19624;BME280;9959;49.798;9.928;2023-03-01T13:13:24;100128.75;;;12.33;32.29
19624;BME280;9959;49.798;9.928;2023-03-01T13:15:52;100115.75;;;13.19;31.23
19624;BME280;9959;49.798;9.928;2023-03-01T13:20:48;100106.63;;;14.19;29.19
19624;BME280;9959;49.798;9.928;2023-03-01T13:31:04;100094.78;;;12.63;31.33
19624;BME280;9959;49.798;9.928;2023-03-01T13:36:00;100088.75;;;12.61;31.39
19624;BME280;9959;49.798;9.928;2023-03-01T13:46:56;100098.84;;;13.55;30.13
19624;BME280;9959;49.798;9.928;2023-03-01T13:49:42;100096.75;;;12.36;31.57
19624;BME280;9959;49.798;9.928;2023-03-01T13:52:36;100093.13;;;12.62;31.80
19624;BME280;9959;49.798;9.928;2023-03-01T13:57:49;100103.59;;;13.35;31.11
19624;BME280;9959;49.798;9.928;2023-03-01T14:00:36;100093.47;;;13.98;29.73
19624;BME280;9959;49.798;9.928;2023-03-01T14:05:40;100082.16;;;14.63;28.68
19624;BME280;9959;49.798;9.928;2023-03-01T14:08:22;100086.81;;;14.37;29.04
19624;BME280;9959;49.798;9.928;2023-03-01T14:13:46;100078.97;;;13.05;31.01
19624;BME280;9959;49.798;9.928;2023-03-01T14:19:15;100076.25;;;13.11;30.94
19624;BME280;9959;49.798;9.928;2023-03-01T14:24:50;100058.28;;;13.73;29.73
19624;BME280;9959;49.798;9.928;2023-03-01T14:27:14;100070.47;;;11.99;32.18
19624;BME280;9959;49.798;9.928;2023-03-01T14:29:41;100060.81;;;13.68;30.40
19624;BME280;9959;49.798;9.928;2023-03-01T14:32:29;100073.97;;;12.64;31.52
19624;BME280;9959;49.798;9.928;2023-03-01T14:34:58;100055.09;;;13.58;30.14
19624;BME280;9959;49.798;9.928;2023-03-01T14:37:29;100063.31;;;14.13;29.92
19624;BME280;9959;49.798;9.928;2023-03-01T14:39:58;100060.06;;;12.98;31.53
19624;BME280;9959;49.798;9.928;2023-03-01T14:42:29;100059.72;;;13.51;30.50
19624;BME280;9959;49.798;9.928;2023-03-01T14:44:57;100060.50;;;14.44;29.40
19624;BME280;9959;49.798;9.928;2023-03-01T14:47:29;100053.72;;;13.17;31.22
19624;BME280;9959;49.798;9.928;2023-03-01T14:50:09;100056.94;;;12.63;31.83
19624;BME280;9959;49.798;9.928;2023-03-01T14:52:45;100050.16;;;13.24;30.91
19624;BME280;9959;49.798;9.928;2023-03-01T14:55:29;100050.13;;;12.92;31.31
19624;BME280;9959;49.798;9.928;2023-03-01T14:57:57;100039.63;;;13.65;30.72
19624;BME280;9959;49.798;9.928;2023-03-01T15:00:29;100047.97;;;12.11;32.49
19624;BME280;9959;49.798;9.928;2023-03-01T15:03:00;100042.25;;;10.07;36.20
19624;BME280;9959;49.798;9.928;2023-03-01T15:05:31;100036.44;;;11.45;34.12
19624;BME280;9959;49.798;9.928;2023-03-01T15:08:00;100048.59;;;12.07;33.48
19624;BME280;9959;49.798;9.928;2023-03-01T15:10:30;100048.44;;;11.82;33.29
19624;BME280;9959;49.798;9.928;2023-03-01T15:13:11;100048.41;;;13.04;31.25
19624;BME280;9959;49.798;9.928;2023-03-01T15:15:41;100049.19;;;13.11;31.63
19624;BME280;9959;49.798;9.928;2023-03-01T15:18:21;100047.50;;;12.79;31.48
19624;BME280;9959;49.798;9.928;2023-03-01T15:23:27;100047.53;;;12.21;32.53
19624;BME280;9959;49.798;9.928;2023-03-01T15:25:55;100046.25;;;12.81;31.61
19624;BME280;9959;49.798;9.928;2023-03-01T15:28:43;100047.19;;;11.58;33.19
19624;BME280;9959;49.798;9.928;2023-03-01T15:31:22;100048.88;;;11.46;33.29
19624;BME280;9959;49.798;9.928;2023-03-01T15:33:49;100050.69;;;13.39;31.33
19624;BME280;9959;49.798;9.928;2023-03-01T15:38:59;100050.47;;;12.64;32.52
19624;BME280;9959;49.798;9.928;2023-03-01T15:41:38;100056.75;;;11.61;33.72
19624;BME280;9959;49.798;9.928;2023-03-01T15:44:26;100056.56;;;11.82;33.40
19624;BME280;9959;49.798;9.928;2023-03-01T15:47:30;100054.91;;;12.90;31.79
19624;BME280;9959;49.798;9.928;2023-03-01T15:49:59;100047.41;;;12.03;33.09
19624;BME280;9959;49.798;9.928;2023-03-01T15:52:33;100047.19;;;11.98;33.07